Augusta, GA

4:35 AM EST on January 22, 2017 (GMT -0500)
Augusta Regional At Bush | | Change Station
Active Advisory: Lake Wind Advisory

Elev 144 ft 33.37 °N, 81.96 °W | Updated 42 minutes ago

Rain
Rain
62 °F
Feels Like 62 °F
N
6
Wind Variable Wind from South

Today
High -- | Low -- °F
--% Chance of Precip.
Yesterday
High -- | Low -- °F
Precip. -- in
Pressure 29.67 in
Visibility 5.0 miles
Clouds Few 700 ft
Mostly Cloudy 9000 ft
Overcast 10000 ft
Dew Point 59 °F
Humidity 90%
Rainfall 0.17 in
Snow Depth Not available.
7:29 AM 5:50 PM
Waning Crescent, 28% visible
METAR KAGS 220853Z AUTO 17005KT 5SM -RA BR FEW007 BKN090 OVC100 17/15 A2967 RMK AO2 SLP047 P0009 60017 T01670150 58002
Pressure 29.67 in
Visibility 5.0 miles
Clouds Few 700 ft
Mostly Cloudy 9000 ft
Overcast 10000 ft
Dew Point 59 °F
Humidity 90%
Rainfall 0.17 in
Snow Depth Not available.
7:29 AM 5:50 PM
Waning Crescent, 28% visible
METAR KAGS 220853Z AUTO 17005KT 5SM -RA BR FEW007 BKN090 OVC100 17/15 A2967 RMK AO2 SLP047 P0009 60017 T01670150 58002

Get Your Daily Forecast Email!

Thanks for signing up!

Be on the lookout for a verification email in your inbox.

You'll start receiving the daily forecast at 8 AM.

×

10-Day Weather Forecast

Almanac

Astronomy

Jan. 22, 2017 Rise Set
Actual Time
Civil Twilight
Nautical Twilight
Astronomical Twilight
Moon
Length of Visible Light
Length of Day
Tomorrow will be .
, % of the Moon is Illuminated

Today's Extremes

State Highs State Lows

Community

WunderPhotos

Upload Photos

1,962,540 photos uploaded!

WunderBlog® & News

Nearby

Air Quality

  Air Quality AQ Index Pollutant
Not available.

Snow Depth

Station Depth Elevation

Earthquake Activity

City Distance Mag. Time & Date
Minimum magnitude displayed is 2.5.

Coastal Water Temperatures

Place Temperature

Stations

Nearby Weather Stations

Station Location Temp. Windchill Dew Point Humidity Wind Precip. Elev Updated Type
                   

Watches & Warnings

Lake Wind Advisory
Issued: 3:31 AM EST Jan. 22, 2017 – National Weather Service

... Lake Wind Advisory remains in effect from 1 PM this afternoon
to 7 PM EST Monday...

* timing... this afternoon through Monday.

* Winds... southwest 15 to 25 knots this afternoon and tonight...
and southwest to west 15 to 25 knots Monday.

* Impacts... hazardous conditions will occur on area lakes.

Precautionary/preparedness actions...

A lake Wind Advisory indicates that winds will cause rough chop
on area lakes. Small boats will be especially prone to capsizing.